Terminal Aerodrome Forecast
Issued by NWS Shreveport, LA

Home | Current Version | Previous Version | Text Only | Print | Product List | Glossary On
Versions: 1 2 3 4 5 6 7 8 9 10 11 12 13 14 15 16 17 18 19 20 21 22
000
FTUS44 KSHV 210520
TAFMLU
TAF
KMLU 210520Z 2106/2206 19004KT P6SM VCSH OVC100
      TEMPO 2106/2110 5SM -TSRA BR OVC050CB
     FM211000 17003KT P6SM VCTS OVC040CB
      TEMPO 2110/2114 5SM -TSRA BR OVC005CB
     FM211400 16006KT 5SM BR VCSH OVC005
     FM211600 16007KT P6SM VCSH OVC015
     FM220000 19007KT P6SM VCTS OVC025CB=

USA.gov is the U.S. government's official web portal to all federal, state and local government web resources and services.